Terminal Aerodrome Forecast
Issued by NWS Lake Charles, LA

Home | Current Version | Previous Version | Text Only | Print | Product List | Glossary On
Versions: 1 2 3 4 5 6 7 8 9 10 11 12 13 14 15 16 17
000
FTUS44 KLCH 212300
TAFAEX
TAF
KAEX 212320Z 2200/2224 15008KT P6SM -RA FEW040 BKN100
     FM220200 18003KT P6SM BKN200
     FM221400 22005KT P6SM FEW050 SCT200=

USA.gov is the U.S. government's official web portal to all federal, state and local government web resources and services.